Главная страница
METAR-TAF:

METAR-TAF

Аэропорты :

Пашковский

Краснодар, Россия

широта: 45-02N, долгота: 039-09E, высота над уровнем моря: 33 м

Текущие метеонаблюдения

Эта сводка был подготовлена 24 минут назад, в 02:30 UTC
Ветер 2 Узел переменных направлений
Температура 19°C
Влажность 68%
Давление 1014 hPa
Видимость 10 км и более
Нет облачности ниже 1500 м, и нет кучево-дождевой облачности

METAR: URKK 210230Z VRB01MPS CAVOK 19/13 Q1014 R23L/CLRD70 NOSIG RMK QFE757

Время: 05:54 (02:54 UTC)

Прогноз

Эта сводка был подготовлена 58 минут назад, в 01:56 UTC
Прогноз действительный с 21-го 03 UTC до 22-го 03 UTC
Ветер 6 Узел от северо-восточный с порывами до 16 Узел
Видимость 10 км и более
Нет облачности ниже 1500 м, и нет кучево-дождевой облачности

TAF: URKK 210156Z 2103/2203 04003G08MPS CAVOK

Метеонаблюдения и прогнозы для более 4000 аэропортов (сводки METAR и TAF).

Имеющиеся станции представлены на карте желтыми и красными точками.

Чтобы увидеть название станции, наведите на нее мышь.

Затем щелкните, чтобы увидеть метеонаблюдения и метеопрогнозы.

Управление картой: чтобы увеличить масштаб, щелкните зеленые кнопки с черным крестиком; чтобы уменьшить масштаб, щелкните зеленую кнопку с тире; для просмотра соседних карт щелкайте зеленые стрелки.


METAR-TAF: